Weather observations for the past three days for
Skaneateles Aero Drome
Imperial (Metric)
Date Time (edt) Wind (mph) Vis. (mi.) Weather Sky Cond. Temperature (ºF) Relative Humidity Wind Chill (°F) Heat Index (°F) Pressure Precipitation (in)
Air Dwpt 6 hour altimeter (in) sea level (mb) 1 hr 3 hr 6 hr
Max. Min.
31 03:55 Calm 8.00 Overcast OVC019 59 59 100% 30.12 0.0
31 03:35 Calm 5.00 Fog/Mist OVC019 59 59 100% 30.12 0.0
31 03:15 Calm 5.00 Fog/Mist BKN019 57.2 57.2 100% 30.12 0.0
31 02:55 Calm 4.00 Fog/Mist FEW022 59 59 100% 30.13 0.0
31 02:35 Calm 5.00 Fog/Mist CLR 57.2 57.2 100% 30.12 0.0
31 02:15 Calm 1.00 Fog/Mist CLR 59 59 100% 30.13 0.0
31 01:55 Calm 0.50 Fog/Mist VV005 59 59 100% 30.13 0.0
31 01:35 Calm 2.00 Fog/Mist CLR 59 59 100% 30.13 0.0
31 01:15 Calm 8.00 Partly Cloudy SCT021 59 59 100% 30.14 0.0
31 00:55 Calm 10.00 Overcast OVC021 60.8 60.8 100% 30.15 0.0
31 00:35 Calm 10.00 Overcast OVC020 60.8 60.8 100% 30.14 0.0
31 00:15 Calm 0.75 Fog/Mist OVC020 59 59 100% 30.14 0.0
30 23:55 Calm 1.00 Fog/Mist SCT025 BKN034 59 59 100% 30.14 0.0
30 23:35 Calm 1.25 Fog/Mist SCT024 SCT050 59 59 100% 30.14 0.0
30 23:15 Calm 9.00 Partly Cloudy SCT055 60.8 60.8 100% 30.14 0.0
30 22:55 Calm 10.00 Mostly Cloudy BKN050 60.8 60.8 100% 30.14 0.0
30 22:35 Calm 0.00 NULL NULL 62.6 60.8 94% 30.14 0.0
30 22:15 Calm 10.00 A Few Clouds FEW065 62.6 60.8 94% 30.14 0.0
30 21:55 SW 5 10.00 Partly Cloudy SCT050 SCT065 62.6 62.6 100% 30.14 0.0
30 21:35 Calm 10.00 Overcast BKN050 OVC065 62.6 62.6 100% 30.15 0.0
30 21:15 Calm 10.00 Overcast BKN049 OVC065 64.4 62.6 94% 30.14 0.0
30 20:55 Calm 10.00 Overcast OVC060 64.4 62.6 94% 30.14 0.0
30 20:35 SW 5 10.00 Overcast OVC060 66.2 64.4 94% 30.13 0.0
30 20:15 SW 5 10.00 Overcast OVC060 66.2 64.4 94% 30.12 0.0
30 19:55 Calm 10.00 Overcast OVC060 66.2 64.4 94% 30.11 0.0
30 19:35 W 5 10.00 Overcast OVC065 66.2 64.4 94% 30.11 0.0
30 19:15 SW 5 10.00 Overcast OVC065 66.2 64.4 94% 30.1 0.0
30 18:55 W 7 10.00 Overcast OVC070 66.2 64.4 94% 30.1 0.0
30 18:35 W 6 10.00 Overcast OVC070 66.2 64.4 94% 30.1 0.0
30 18:15 W 6 10.00 Overcast FEW020 OVC070 66.2 64.4 94% 30.1 0.0
30 17:55 Calm 10.00 Overcast BKN017 BKN021 OVC070 66.2 64.4 94% 30.11 0.0
30 17:35 SW 7 10.00 Mostly Cloudy SCT017 SCT026 BKN080 66.2 64.4 94% 30.1 0.0
30 17:15 SW 7 4.00 Fog/Mist BKN023 66.2 64.4 94% 30.1 0.0
30 16:55 SW 6 9.00 Overcast BKN024 BKN029 OVC034 64.4 64.4 100% 30.11 0.0 0.01
30 16:35 SW 5 9.00 Overcast BKN030 OVC035 64.4 64.4 100% 30.11 0.0
30 16:15 W 3 4.00 Fog/Mist BKN030 OVC036 64.4 64.4 100% 30.11 0.0
30 15:55 Calm 10.00 Overcast BKN037 OVC047 64.4 64.4 100% 30.11 0.0
30 15:35 Calm 10.00 Mostly Cloudy FEW039 BKN047 64.4 64.4 100% 30.11 0.0
30 15:15 Calm 4.00 Fog/Mist CLR 64.4 62.6 94% 30.11 0.0
30 14:55 Calm 3.00 Light Drizzle FEW044 66.2 62.6 88% 30.13 0.0
30 14:35 Vrbl 5 7.00 Partly Cloudy FEW027 SCT040 66.2 62.6 88% 30.13 0.0
30 14:15 W 6 G 13 7.00 Overcast BKN028 BKN035 OVC045 68 60.8 78% 30.13 0.0
30 13:55 W 7 10.00 Mostly Cloudy BKN046 BKN050 68 60.8 78% 30.13 0.0
30 13:35 W 7 10.00 Mostly Cloudy SCT050 BKN055 69.8 60.8 73% 30.12 0.0
30 13:15 W 7 10.00 Overcast OVC055 69.8 60.8 73% 30.12 0.0
30 12:55 Calm 10.00 Overcast OVC060 71.6 60.8 69% 30.12 0.0
30 12:35 SW 5 10.00 Overcast BKN060 OVC070 71.6 60.8 69% 30.12 0.0
30 12:15 SW 3 10.00 Overcast OVC075 71.6 59 65% 30.13 0.0
30 11:55 Vrbl 5 9.00 Overcast OVC080 71.6 59 65% 30.12 0.0
30 11:35 SW 3 10.00 Overcast OVC085 69.8 59 69% 30.13 0.0
30 11:15 Vrbl 6 10.00 Mostly Cloudy BKN090 69.8 57.2 64% 30.13 0.0
30 10:55 Vrbl 6 10.00 A Few Clouds FEW065 FEW095 FEW110 71.6 59 65% 30.13 0.0
30 10:35 SW 5 10.00 A Few Clouds FEW100 71.6 59 65% 30.12 0.0
30 10:15 Calm 10.00 Mostly Cloudy BKN100 69.8 57.2 64% 30.12 0.0
30 09:55 Calm 10.00 Mostly Cloudy BKN110 68 57.2 69% 30.11 0.0
30 09:35 Calm 10.00 Mostly Cloudy BKN110 68 57.2 69% 30.12 0.0
30 09:15 Calm 10.00 Mostly Cloudy BKN120 68 57.2 69% 30.12 0.0
30 08:55 Calm 10.00 Mostly Cloudy BKN120 68 57.2 69% 30.12 0.0
30 08:35 Calm 10.00 A Few Clouds FEW120 68 55.4 64% 30.13 0.0
30 08:15 Calm 10.00 Fair CLR 68 55.4 64% 30.13 0.0
30 07:55 Calm 10.00 Fair CLR 68 55.4 64% 30.13 0.0
30 07:35 Calm 10.00 Fair CLR 66.2 55.4 68% 30.13 0.0
30 07:15 SW 7 10.00 Fair CLR 66.2 53.6 64% 30.13 0.0
30 06:55 SW 6 10.00 Fair CLR 66.2 53.6 64% 30.13 0.0
30 06:35 SW 6 10.00 Fair CLR 66.2 53.6 64% 30.13 0.0
30 06:15 Calm 10.00 A Few Clouds FEW120 66.2 53.6 64% 30.13 0.0
30 05:55 SW 5 10.00 A Few Clouds FEW120 66.2 53.6 64% 30.14 0.0
30 05:35 Vrbl 3 10.00 Fair CLR 66.2 53.6 64% 30.14 0.0
30 05:15 SW 6 10.00 Fair CLR 66.2 53.6 64% 30.15 0.0
30 04:55 SW 5 10.00 Fair CLR 66.2 53.6 64% 30.15 0.0
30 04:35 SW 5 10.00 Fair CLR 66.2 53.6 64% 30.15 0.0
30 04:15 SW 5 10.00 Fair CLR 66.2 53.6 64% 30.15 0.0
30 03:55 SW 6 10.00 Fair CLR 66.2 55.4 68% 30.15 0.0
30 03:35 SW 5 10.00 Fair CLR 66.2 53.6 64% 30.15 0.0
30 03:15 SW 6 10.00 Fair CLR 66.2 55.4 68% 30.15 0.0
30 02:55 SW 5 10.00 Fair CLR 66.2 55.4 68% 30.15 0.0
30 02:35 SW 6 10.00 Fair CLR 66.2 55.4 68% 30.16 0.0
30 02:15 SW 6 10.00 Fair CLR 66.2 55.4 68% 30.16 0.0
30 01:55 SW 5 10.00 Fair CLR 66.2 55.4 68% 30.16 0.0
30 01:35 SW 6 10.00 Fair CLR 68 55.4 64% 30.16 0.0
30 01:15 Vrbl 5 10.00 Fair CLR 66.2 55.4 68% 30.16 0.0
30 00:55 Calm 10.00 Fair CLR 66.2 55.4 68% 30.16 0.0
30 00:35 Calm 10.00 Fair CLR 66.2 55.4 68% 30.16 0.0
30 00:15 Vrbl 5 10.00 Fair CLR 68 53.6 60% 30.16 0.0
29 23:55 SW 6 10.00 Fair CLR 68 53.6 60% 30.16 0.0
29 23:35 Vrbl 5 10.00 Fair CLR 68 53.6 60% 30.16 0.0
29 23:15 SW 3 10.00 Fair CLR 66.2 53.6 64% 30.15 0.0
29 22:55 Calm 10.00 Fair CLR 66.2 53.6 64% 30.16 0.0
29 22:35 Calm 10.00 Fair CLR 66.2 53.6 64% 30.16 0.0
29 22:15 Calm 10.00 Fair CLR 66.2 53.6 64% 30.17 0.0
29 21:55 Calm 10.00 Fair CLR 66.2 53.6 64% 30.17 0.0
29 21:35 Calm 10.00 Fair CLR 66.2 55.4 68% 30.16 0.0
29 21:15 Calm 10.00 Fair CLR 66.2 53.6 64% 30.17 0.0
29 20:55 Calm 10.00 Fair CLR 66.2 53.6 64% 30.16 0.0
29 20:35 Calm 10.00 Fair CLR 66.2 55.4 68% 30.15 0.0
29 20:15 Calm 10.00 Fair CLR 64.4 55.4 73% 30.15 0.0
29 19:55 Calm 10.00 Fair CLR 64.4 57.2 78% 30.15 0.0
29 19:35 Calm 10.00 Fair CLR 66.2 57.2 73% 30.16 0.0
29 19:15 Calm 10.00 Fair CLR 68 59 73% 30.16 0.0
29 18:55 Calm 10.00 Fair CLR 71.6 55.4 57% 30.16 0.0
29 18:35 Calm 10.00 Fair CLR 71.6 55.4 57% 30.16 0.0
29 18:15 Calm 10.00 Fair CLR 73.4 53.6 50% 30.17 0.0
29 17:55 Vrbl 5 10.00 A Few Clouds FEW085 75.2 53.6 47% 78 30.18 0.0
29 17:35 SW 7 10.00 A Few Clouds FEW085 75.2 51.8 44% 78 30.18 0.0
29 17:15 SW 8 G 16 10.00 Fair CLR 75.2 51.8 44% 78 30.19 0.0
29 16:55 Vrbl 6 10.00 Fair CLR 75.2 51.8 44% 78 30.19 0.0
29 16:35 SW 8 10.00 Fair CLR 75.2 51.8 44% 78 30.2 0.0
29 16:15 SW 8 G 14 10.00 Fair CLR 75.2 51.8 44% 78 30.2 0.0
29 15:55 W 7 10.00 Fair CLR 75.2 51.8 44% 78 30.21 0.0
29 15:35 W 6 G 12 10.00 Fair CLR 75.2 50 41% 78 30.21 0.0
29 15:15 Vrbl 3 10.00 Fair CLR 75.2 50 41% 78 30.21 0.0
29 14:55 Vrbl 6 G 14 10.00 A Few Clouds FEW070 FEW090 75.2 50 41% 78 30.22 0.0
29 14:35 W 9 10.00 Mostly Cloudy BKN070 73.4 51.8 47% 30.23 0.0
29 14:15 SW 3 10.00 Mostly Cloudy BKN080 73.4 50 44% 30.23 0.0
29 13:55 Vrbl 6 10.00 Partly Cloudy SCT080 73.4 51.8 47% 30.23 0.0
29 13:35 Vrbl 5 10.00 Partly Cloudy SCT090 73.4 51.8 47% 30.24 0.0
29 12:15 Calm 10.00 Fair CLR 71.6 50 47% 30.25 0.0
29 11:55 Vrbl 3 10.00 Fair CLR 69.8 51.8 53% 30.26 0.0
29 11:35 Vrbl 6 10.00 Fair CLR 69.8 53.6 57% 30.26 0.0
29 11:15 Vrbl 7 10.00 Fair CLR 68 55.4 64% 30.26 0.0
29 10:55 Vrbl 7 10.00 Fair CLR 68 55.4 64% 30.26 0.0
29 10:35 Vrbl 3 10.00 Fair CLR 66.2 55.4 68% 30.26 0.0
29 10:15 Vrbl 7 10.00 Fair CLR 66.2 55.4 68% 30.26 0.0
29 09:55 W 7 10.00 Fair CLR 64.4 53.6 68% 30.25 0.0
29 09:35 Vrbl 5 10.00 Fair CLR 64.4 53.6 68% 30.25 0.0
29 09:15 SW 7 10.00 Fair CLR 62.6 51.8 68% 30.25 0.0
29 08:55 Vrbl 6 10.00 Fair CLR 60.8 51.8 72% 30.25 0.0
29 08:35 Vrbl 5 10.00 Fair CLR 59 51.8 77% 30.26 0.0
29 08:15 Calm 10.00 Fair CLR 57.2 53.6 88% 30.26 0.0
29 07:55 Calm 10.00 Fair CLR 55.4 53.6 94% 30.25 0.0
29 07:35 Calm 10.00 Fair CLR 51.8 51.8 100% 30.25 0.0
29 07:15 Calm 10.00 Fair CLR 50 50 100% 30.24 0.0
29 06:55 Calm 10.00 Fair CLR 48.2 48.2 100% 30.23 0.0
29 06:35 Calm 10.00 Fair CLR 48.2 48.2 100% 30.23 0.0
29 06:15 Calm 10.00 A Few Clouds FEW047 46.4 46.4 100% 30.22 0.0
29 05:55 Calm 10.00 Mostly Cloudy BKN047 48.2 46.4 94% 30.22 0.0
29 05:35 Calm 10.00 Mostly Cloudy BKN049 48.2 48.2 100% 30.22 0.0
29 05:15 Calm 10.00 Mostly Cloudy BKN048 50 48.2 94% 30.21 0.0
29 04:55 Calm 10.00 Mostly Cloudy BKN048 51.8 50 94% 30.21 0.0
29 04:35 Calm 10.00 Overcast OVC048 50 50 100% 30.2 0.0
29 04:15 Calm 10.00 Mostly Cloudy BKN050 50 50 100% 30.2 0.0
29 03:55 Calm 10.00 A Few Clouds FEW050 50 50 100% 30.19 0.0
29 03:35 Calm 10.00 Overcast OVC050 48.2 48.2 100% 30.19 0.0
29 03:15 Calm 10.00 Mostly Cloudy BKN049 48.2 48.2 100% 30.19 0.0
29 02:55 Calm 9.00 Partly Cloudy SCT046 SCT050 48.2 48.2 100% 30.19 0.0
29 02:35 Calm 10.00 Mostly Cloudy FEW047 BKN055 48.2 48.2 100% 30.18 0.0
29 02:15 Calm 10.00 Mostly Cloudy BKN055 48.2 48.2 100% 30.19 0.0
29 01:55 Calm 10.00 Mostly Cloudy BKN055 50 50 100% 30.19 0.0
29 01:35 Calm 10.00 Mostly Cloudy BKN055 50 50 100% 30.19 0.0
29 01:15 Calm 10.00 Mostly Cloudy BKN060 50 50 100% 30.2 0.0
29 00:55 Calm 10.00 Fair CLR 50 50 100% 30.2 0.0
29 00:35 Calm 10.00 Fair CLR 50 48.2 94% 30.2 0.0
29 00:15 Calm 10.00 Fair CLR 50 48.2 94% 30.2 0.0
28 23:55 Calm 10.00 Fair CLR 50 50 100% 30.19 0.0
28 23:35 Calm 10.00 Fair CLR 50 50 100% 30.19 0.0
28 23:15 Calm 10.00 Fair CLR 51.8 50 94% 30.19 0.0
28 22:55 Calm 10.00 Fair CLR 51.8 50 94% 30.18 0.0
28 22:35 Calm 10.00 Fair CLR 51.8 51.8 100% 30.18 0.0
28 22:15 Calm 10.00 Fair CLR 51.8 50 94% 30.18 0.0
28 21:55 Calm 10.00 Fair CLR 53.6 51.8 94% 30.18 0.0
28 21:35 Calm 10.00 Fair CLR 51.8 51.8 100% 30.18 0.0
28 21:15 Calm 10.00 Fair CLR 53.6 51.8 94% 30.17 0.0
28 20:55 Calm 10.00 Fair CLR 53.6 51.8 94% 30.17 0.0
28 20:35 Calm 10.00 Fair CLR 55.4 51.8 88% 30.16 0.0
28 20:15 Calm 10.00 Fair CLR 57.2 51.8 82% 30.16 0.0
28 19:55 Calm 10.00 Fair CLR 59 51.8 77% 30.16 0.0
28 19:35 Calm 10.00 Fair CLR 60.8 51.8 72% 30.16 0.0
28 19:15 Calm 10.00 Fair CLR 64.4 51.8 64% 30.15 0.0
28 18:55 Calm 10.00 Fair CLR 66.2 51.8 60% 30.15 0.0
28 18:35 Calm 10.00 Fair CLR 66.2 51.8 60% 30.15 0.0
28 18:15 Calm 10.00 Fair CLR 66.2 51.8 60% 30.15 0.0
28 17:55 Vrbl 3 10.00 A Few Clouds FEW039 FEW046 66.2 50 56% 30.15 0.0
28 17:35 Vrbl 5 10.00 Fair CLR 68 51.8 56% 30.15 0.0
28 17:15 Calm 10.00 Fair CLR 66.2 50 56% 30.15 0.0
28 16:55 Vrbl 5 10.00 A Few Clouds FEW041 68 50 53% 30.14 0.0
28 16:35 Vrbl 5 G 12 10.00 Fair CLR 69.8 50 50% 30.14 0.0
28 16:15 N 8 10.00 Fair CLR 69.8 51.8 53% 30.13 0.0
28 15:55 Vrbl 6 G 13 10.00 A Few Clouds FEW038 68 51.8 56% 30.13 0.0
28 15:35 Vrbl 6 G 15 10.00 Fair CLR 69.8 51.8 53% 30.13 0.0
28 15:15 Vrbl 8 G 14 10.00 Fair CLR 69.8 50 50% 30.13 0.0
28 14:55 NW 8 G 17 10.00 Fair CLR 69.8 50 50% 30.13 0.0
28 14:35 Vrbl 7 G 15 10.00 A Few Clouds FEW035 71.6 53.6 53% 30.13 0.0
28 14:15 Vrbl 6 G 15 10.00 A Few Clouds FEW036 FEW045 69.8 53.6 57% 30.13 0.0
28 13:55 W 8 10.00 Partly Cloudy FEW031 FEW037 SCT045 69.8 57.2 64% 30.13 0.0
28 13:35 Vrbl 6 G 12 10.00 Partly Cloudy FEW028 FEW034 SCT048 71.6 57.2 61% 30.13 0.0
28 13:15 Vrbl 3 G 14 10.00 Partly Cloudy FEW026 FEW033 SCT048 69.8 59 69% 30.13 0.0
28 12:55 W 8 G 17 10.00 A Few Clouds FEW028 FEW044 69.8 55.4 60% 30.13 0.0
28 12:35 Vrbl 6 G 13 10.00 Mostly Cloudy FEW027 SCT033 BKN045 68 60.8 78% 30.13 0.0
28 12:15 Vrbl 5 10.00 Partly Cloudy FEW034 SCT043 SCT050 71.6 59 65% 30.12 0.0
28 11:55 Vrbl 7 G 17 10.00 Partly Cloudy FEW042 SCT050 69.8 59 69% 30.13 0.0
28 11:35 W 8 G 18 10.00 A Few Clouds FEW021 FEW028 FEW055 71.6 57.2 61% 30.12 0.0
28 11:15 W 7 0.00 Mostly Cloudy SCT021 SCT026 BKN041 69.8 60.8 73% 30.12 0.0
28 10:55 NW 8 G 21 10.00 Mostly Cloudy SCT023 SCT031 BKN040 69.8 60.8 73% 30.11 0.0
28 10:35 W 8 G 14 10.00 Mostly Cloudy FEW016 SCT023 BKN034 68 60.8 78% 30.1 0.0
28 10:15 W 12 10.00 Overcast SCT016 BKN022 OVC034 68 60.8 78% 30.1 0.0
28 09:55 Vrbl 6 G 13 10.00 Overcast SCT015 BKN022 OVC034 66.2 60.8 83% 30.1 0.0
28 09:35 W 6 10.00 Overcast SCT012 BKN016 OVC028 66.2 60.8 83% 30.09 0.0
28 09:15 Vrbl 7 G 14 10.00 Overcast FEW010 BKN014 OVC032 66.2 62.6 88% 30.08 0.0
28 08:55 Vrbl 6 10.00 Overcast FEW009 BKN012 OVC026 64.4 62.6 94% 30.07 0.0
28 08:35 Vrbl 6 10.00 Overcast FEW007 SCT013 OVC026 64.4 62.6 94% 30.07 0.0
28 08:15 Vrbl 5 10.00 Overcast FEW008 BKN025 OVC030 64.4 62.6 94% 30.06 0.0
28 07:55 W 7 10.00 Overcast FEW008 SCT018 OVC029 64.4 62.6 94% 30.05 0.0
28 07:35 Vrbl 7 10.00 Overcast FEW016 FEW024 OVC031 64.4 62.6 94% 30.05 0.0
28 07:15 W 6 10.00 Overcast FEW016 OVC028 64.4 62.6 94% 30.04 0.0
28 06:55 W 5 10.00 Overcast SCT009 BKN017 OVC024 64.4 62.6 94% 30.03 0.0
28 06:35 W 6 10.00 Overcast SCT009 OVC016 64.4 62.6 94% 30.02 0.0
28 06:15 W 6 10.00 Overcast FEW011 BKN017 OVC025 64.4 62.6 94% 30.02 0.0
28 05:55 W 3 10.00 Overcast SCT011 BKN018 OVC026 62.6 62.6 100% 30.01 0.0
28 05:35 W 6 10.00 Overcast SCT019 OVC026 62.6 62.6 100% 30.01 0.0
28 05:15 W 5 10.00 Mostly Cloudy FEW018 BKN026 60.8 60.8 100% 30 0.0
28 04:55 Calm 10.00 Mostly Cloudy BKN028 60.8 60.8 100% 30 0.0
28 04:35 W 3 10.00 Mostly Cloudy BKN030 BKN045 60.8 60.8 100% 29.99 0.0
28 04:15 Calm 10.00 Mostly Cloudy BKN031 BKN046 60.8 60.8 100% 30 0.0
Date Time (edt) Wind (mph) Vis. (mi.) Weather Sky Cond. Air Dwpt Max. Min. Relative Humidity Wind Chill (°F) Heat Index (°F) altimeter (in) sea level (mb) 1 hr 3 hr 6 hr
6 hour
Temperature (ºF) Pressure Precipitation (in)